Time;durP1;ratioP1;P1;durP2;ratioP2;P2;SDS_P1;SDS_P2;PMS_P1;PMS_P2;Temp;Humidity;BMP_temperature;BMP_pressure;BME280_temperature;BME280_humidity;BME280_pressure;Samples;Min_cycle;Max_cycle;Signal;HPM_P1;HPM_P2
2021/12/28 00:00:23;;;;;;;35.78;19.73;;;;;;;-142.18;100.00;118595.56;5140689;27;20057;-74
2021/12/28 00:02:53;;;;;;;37.28;19.35;;;;;;;-142.18;100.00;118595.56;5072198;28;20458;-73
2021/12/28 00:05:22;;;;;;;36.35;19.27;;;;;;;-142.18;100.00;118595.56;5071487;28;20542;-74
2021/12/28 00:07:51;;;;;;;31.95;19.27;;;;;;;-142.18;100.00;118595.56;5071828;28;20153;-74
2021/12/28 00:10:19;;;;;;;36.75;20.30;;;;;;;-142.18;100.00;118595.56;5071145;28;20092;-74
2021/12/28 00:12:48;;;;;;;34.25;19.35;;;;;;;-142.18;100.00;118595.56;5070897;28;20069;-74
2021/12/28 00:18:02;;;;;;;29.05;17.83;;;;;;;-142.18;100.00;118595.56;5072116;28;20053;-74
2021/12/28 00:20:39;;;;;;;35.03;19.05;;;;;;;-142.18;100.00;118595.56;5071699;28;20057;-73
2021/12/28 00:23:13;;;;;;;33.78;19.73;;;;;;;-142.18;100.00;118595.56;5071401;27;20072;-74
2021/12/28 00:25:42;;;;;;;41.15;20.70;;;;;;;-142.18;100.00;118595.56;5070804;28;20550;-74
2021/12/28 00:28:08;;;;;;;38.15;20.23;;;;;;;-142.18;100.00;118595.56;5070578;28;20056;-74
2021/12/28 00:30:37;;;;;;;36.55;19.58;;;;;;;-142.18;100.00;118595.56;5139842;27;20808;-73
2021/12/28 00:33:06;;;;;;;27.30;16.42;;;;;;;-142.18;100.00;118595.56;5070694;28;20061;-74
2021/12/28 00:35:38;;;;;;;37.03;19.42;;;;;;;-142.18;100.00;118595.56;5174962;27;20063;-74
2021/12/28 00:38:05;;;;;;;35.75;18.65;;;;;;;-142.18;100.00;118595.56;5070731;27;20061;-74
2021/12/28 00:40:34;;;;;;;31.25;18.30;;;;;;;-142.18;100.00;118595.56;5070314;28;20057;-73
2021/12/28 00:43:03;;;;;;;32.45;18.75;;;;;;;-142.18;100.00;118595.56;5071289;28;20072;-73
2021/12/28 00:45:32;;;;;;;32.65;17.70;;;;;;;-142.18;100.00;118595.56;5068560;27;20450;-73
2021/12/28 00:47:59;;;;;;;32.00;18.27;;;;;;;-142.18;100.00;118595.56;5070971;28;20053;-73
2021/12/28 00:50:27;;;;;;;32.78;18.88;;;;;;;-142.18;100.00;118595.56;5070405;28;20546;-73
2021/12/28 00:52:57;;;;;;;35.65;18.67;;;;;;;-142.18;100.00;118595.56;5071885;28;20144;-74
2021/12/28 00:55:26;;;;;;;35.90;19.65;;;;;;;-142.18;100.00;118595.56;5140852;27;20061;-74
2021/12/28 00:57:53;;;;;;;33.13;18.98;;;;;;;-142.18;100.00;118595.56;5071760;28;20061;-73
2021/12/28 01:00:27;;;;;;;35.92;18.45;;;;;;;-142.18;100.00;118595.56;5071271;28;20071;-74
2021/12/28 01:02:57;;;;;;;35.05;19.65;;;;;;;-142.18;100.00;118595.56;5062357;28;20461;-73
2021/12/28 01:05:27;;;;;;;32.03;17.92;;;;;;;-142.18;100.00;118595.56;5052023;27;20067;-73
2021/12/28 01:07:55;;;;;;;27.40;16.15;;;;;;;-142.18;100.00;118595.56;5050222;28;20152;-73
2021/12/28 01:10:30;;;;;;;32.70;18.77;;;;;;;-142.18;100.00;118595.56;5119104;27;20059;-73
2021/12/28 01:12:57;;;;;;;36.97;18.75;;;;;;;-142.18;100.00;118595.56;5050219;28;20447;-74
2021/12/28 01:15:27;;;;;;;27.67;15.75;;;;;;;-142.18;100.00;118595.56;5050400;28;20068;-73
2021/12/28 01:17:56;;;;;;;28.33;16.25;;;;;;;-142.18;100.00;118595.56;5050967;28;20061;-73
2021/12/28 01:20:23;;;;;;;29.80;17.73;;;;;;;-142.18;100.00;118595.56;5050623;28;20817;-74
2021/12/28 01:22:51;;;;;;;31.50;17.08;;;;;;;-142.18;100.00;118595.56;5051348;28;20694;-73
2021/12/28 01:25:20;;;;;;;29.70;16.92;;;;;;;-142.18;100.00;118595.56;5050825;28;20071;-74
2021/12/28 01:27:48;;;;;;;31.90;16.45;;;;;;;-142.18;100.00;118595.56;5050423;28;20152;-73
2021/12/28 01:30:19;;;;;;;29.55;16.58;;;;;;;-142.18;100.00;118595.56;5153324;27;20065;-74
2021/12/28 01:32:49;;;;;;;34.30;18.27;;;;;;;-142.18;100.00;118595.56;5117999;27;20080;-74
2021/12/28 01:35:17;;;;;;;29.83;16.88;;;;;;;-142.18;100.00;118595.56;5117188;27;20399;-74
2021/12/28 01:37:46;;;;;;;25.67;15.38;;;;;;;-142.18;100.00;118595.56;5050380;28;20435;-73
2021/12/28 01:40:35;;;;;;;27.42;16.67;;;;;;;-142.18;100.00;118595.56;5050286;27;20057;-73
2021/12/28 01:43:11;;;;;;;27.02;16.65;;;;;;;-142.18;100.00;118595.56;5050909;27;20054;-74
2021/12/28 01:45:53;;;;;;;24.58;15.27;;;;;;;-142.18;100.00;118595.56;5119348;27;20057;-74
2021/12/28 01:48:38;;;;;;;25.05;15.35;;;;;;;-142.18;100.00;118595.56;5050535;28;20057;-73
2021/12/28 01:51:13;;;;;;;26.77;15.45;;;;;;;-142.18;100.00;118595.56;5049658;28;20053;-73
2021/12/28 01:53:41;;;;;;;24.75;14.73;;;;;;;-142.18;100.00;118595.56;5050773;28;20178;-73
2021/12/28 01:56:12;;;;;;;31.00;16.63;;;;;;;-142.18;100.00;118595.56;5050553;28;20062;-74
2021/12/28 01:58:42;;;;;;;30.98;17.08;;;;;;;-142.18;100.00;118595.56;5050159;28;20065;-74
2021/12/28 02:01:11;;;;;;;27.38;15.25;;;;;;;-142.18;100.00;118595.56;5049738;27;20136;-74
2021/12/28 02:03:41;;;;;;;29.17;17.23;;;;;;;-142.18;100.00;118595.56;5118441;27;20062;-73
2021/12/28 02:06:10;;;;;;;35.20;18.45;;;;;;;-142.18;100.00;118595.56;5118154;27;20156;-73
2021/12/28 02:08:38;;;;;;;30.58;17.05;;;;;;;-142.18;100.00;118595.56;5050804;28;20522;-74
2021/12/28 02:11:10;;;;;;;27.50;15.13;;;;;;;-142.18;100.00;118595.56;5049447;28;20061;-73
2021/12/28 02:13:40;;;;;;;34.08;17.13;;;;;;;-142.18;100.00;118595.56;5054962;27;20053;-73
2021/12/28 02:16:11;;;;;;;;;;;;;;;-142.18;100.00;118595.56;5070080;28;20450;-73
2021/12/28 02:18:38;;;;;;;36.83;17.65;;;;;;;-142.18;100.00;118595.56;5139856;27;20307;-73
2021/12/28 02:21:07;;;;;;;32.45;16.98;;;;;;;-142.18;100.00;118595.56;5069376;27;20053;-74
2021/12/28 02:23:35;;;;;;;32.72;16.98;;;;;;;-142.18;100.00;118595.56;5069290;28;20133;-74
2021/12/28 02:26:03;;;;;;;32.38;16.52;;;;;;;-142.18;100.00;118595.56;5137843;27;20067;-73
2021/12/28 02:28:30;;;;;;;26.50;15.07;;;;;;;-142.18;100.00;118595.56;5138130;27;20133;-73
2021/12/28 02:30:59;;;;;;;25.63;15.45;;;;;;;-142.18;100.00;118595.56;5067583;28;20464;-74
2021/12/28 02:33:27;;;;;;;29.05;15.73;;;;;;;-142.18;100.00;118595.56;5049272;28;20165;-75
2021/12/28 02:36:00;;;;;;;27.35;15.85;;;;;;;-142.18;100.00;118595.56;5050191;28;20057;-73
2021/12/28 02:38:30;;;;;;;37.47;18.17;;;;;;;-142.18;100.00;118595.56;5070091;27;20057;-74
2021/12/28 02:40:59;;;;;;;39.05;18.52;;;;;;;-142.18;100.00;118595.56;5070199;27;20106;-73
2021/12/28 02:43:27;;;;;;;28.92;16.25;;;;;;;-142.18;100.00;118595.56;5070085;28;20072;-73
2021/12/28 02:45:57;;;;;;;31.95;16.88;;;;;;;-142.18;100.00;118595.56;5069465;28;20057;-73
2021/12/28 02:48:26;;;;;;;24.23;14.45;;;;;;;-142.18;100.00;118595.56;5070533;28;20067;-73
2021/12/28 02:50:59;;;;;;;29.30;16.55;;;;;;;-142.18;100.00;118595.56;5069104;28;20799;-73
2021/12/28 02:53:26;;;;;;;29.25;16.10;;;;;;;-142.18;100.00;118595.56;5070009;28;20056;-74
2021/12/28 02:55:54;;;;;;;26.38;15.70;;;;;;;-142.18;100.00;118595.56;5072892;27;20060;-74
2021/12/28 02:58:27;;;;;;;33.00;16.98;;;;;;;-142.18;100.00;118595.56;5072567;28;20061;-74
2021/12/28 03:01:09;;;;;;;25.70;15.05;;;;;;;-142.18;100.00;118595.56;5073378;27;20061;-74
2021/12/28 03:03:37;;;;;;;27.90;16.03;;;;;;;-142.18;100.00;118595.56;5063040;28;20061;-73
2021/12/28 03:06:07;;;;;;;25.42;15.13;;;;;;;-142.18;100.00;118595.56;5072521;28;20147;-73
2021/12/28 03:08:39;;;;;;;24.60;14.80;;;;;;;-142.18;100.00;118595.56;5068579;27;20053;-73
2021/12/28 03:11:07;;;;;;;26.05;15.48;;;;;;;-142.18;100.00;118595.56;5032912;28;20061;-74
2021/12/28 03:13:46;;;;;;;25.50;15.25;;;;;;;-142.18;100.00;118595.56;5051300;28;20062;-74
2021/12/28 03:16:14;;;;;;;33.47;18.10;;;;;;;-142.18;100.00;118595.56;5052189;28;20118;-73
2021/12/28 03:18:41;;;;;;;36.58;17.83;;;;;;;-142.18;100.00;118595.56;5034757;28;20057;-74
2021/12/28 03:21:09;;;;;;;28.88;15.77;;;;;;;-142.18;100.00;118595.56;5035417;28;20436;-73
2021/12/28 03:23:37;;;;;;;27.88;15.77;;;;;;;-142.18;100.00;118595.56;5052143;28;20352;-73
2021/12/28 03:26:05;;;;;;;24.70;14.82;;;;;;;-142.18;100.00;118595.56;5052656;28;20106;-73
2021/12/28 03:28:35;;;;;;;27.27;15.52;;;;;;;-142.18;100.00;118595.56;5053008;28;20114;-73
2021/12/28 03:31:04;;;;;;;30.20;17.05;;;;;;;-142.18;100.00;118595.56;5034764;28;20454;-74
2021/12/28 03:33:33;;;;;;;29.70;17.00;;;;;;;-142.18;100.00;118595.56;5052574;28;20119;-74
2021/12/28 03:36:00;;;;;;;31.05;17.02;;;;;;;-142.18;100.00;118595.56;5052456;28;20108;-74
2021/12/28 03:38:27;;;;;;;30.02;16.48;;;;;;;-142.18;100.00;118595.56;5035999;28;20058;-73
2021/12/28 03:40:54;;;;;;;34.28;18.38;;;;;;;-142.18;100.00;118595.56;5052765;28;20134;-73
2021/12/28 03:43:21;;;;;;;41.42;19.70;;;;;;;-142.18;100.00;118595.56;5052971;28;20062;-74
2021/12/28 03:45:49;;;;;;;34.22;18.92;;;;;;;-142.18;100.00;118595.56;5052126;28;20061;-74
2021/12/28 03:48:17;;;;;;;32.40;18.70;;;;;;;-142.18;100.00;118595.56;5052893;28;20062;-72
2021/12/28 03:50:44;;;;;;;29.73;16.90;;;;;;;-142.18;100.00;118595.56;5051910;28;20091;-72
2021/12/28 03:53:11;;;;;;;31.08;17.40;;;;;;;-142.18;100.00;118595.56;5052034;28;20061;-73
2021/12/28 03:55:38;;;;;;;32.08;16.92;;;;;;;-142.18;100.00;118595.56;5052311;28;20061;-73
2021/12/28 03:58:05;;;;;;;31.77;17.92;;;;;;;-142.18;100.00;118595.56;5034210;28;20072;-73
2021/12/28 04:00:41;;;;;;;37.60;18.50;;;;;;;-142.18;100.00;118595.56;5051164;28;20066;-75
2021/12/28 04:03:08;;;;;;;28.20;15.82;;;;;;;-142.18;100.00;118595.56;5051396;28;20440;-76
2021/12/28 04:05:36;;;;;;;31.27;17.73;;;;;;;-142.18;100.00;118595.56;5050724;28;20062;-73
2021/12/28 04:08:03;;;;;;;29.23;17.10;;;;;;;-142.18;100.00;118595.56;5051661;28;20130;-73
2021/12/28 04:10:48;;;;;;;29.27;19.45;;;;;;;-142.18;100.00;118595.56;5051216;28;20130;-73
2021/12/28 04:13:18;;;;;;;30.60;18.02;;;;;;;-142.18;100.00;118595.56;5034094;28;20115;-73
2021/12/28 04:15:45;;;;;;;30.30;17.70;;;;;;;-142.18;100.00;118595.56;5050838;28;20065;-73
2021/12/28 04:18:17;;;;;;;26.77;16.13;;;;;;;-142.18;100.00;118595.56;5034261;28;20488;-73
2021/12/28 04:20:44;;;;;;;31.90;18.83;;;;;;;-142.18;100.00;118595.56;5033846;28;20116;-73
2021/12/28 04:23:11;;;;;;;33.90;19.42;;;;;;;-142.18;100.00;118595.56;5051446;28;20431;-73
2021/12/28 04:25:38;;;;;;;35.40;19.77;;;;;;;-142.18;100.00;118595.56;5051405;28;20061;-73
2021/12/28 04:28:04;;;;;;;30.85;17.27;;;;;;;-142.18;100.00;118595.56;5051418;28;20061;-73
2021/12/28 04:30:31;;;;;;;29.48;17.25;;;;;;;-142.18;100.00;118595.56;5034102;28;20464;-73
2021/12/28 04:32:58;;;;;;;32.88;18.92;;;;;;;-142.18;100.00;118595.56;5052016;28;20066;-73
2021/12/28 04:35:24;;;;;;;29.98;18.20;;;;;;;-142.18;100.00;118595.56;5034488;28;20053;-73
2021/12/28 04:37:51;;;;;;;29.75;17.88;;;;;;;-142.18;100.00;118595.56;5051585;28;20484;-75
2021/12/28 04:40:18;;;;;;;36.28;19.27;;;;;;;-142.18;100.00;118595.56;5050860;28;20061;-73
2021/12/28 04:42:44;;;;;;;32.72;18.13;;;;;;;-142.18;100.00;118595.56;5049857;28;20061;-74
2021/12/28 04:45:14;;;;;;;32.42;17.52;;;;;;;-142.18;100.00;118595.56;5050550;28;20058;-73
2021/12/28 04:47:46;;;;;;;33.60;18.80;;;;;;;-142.18;100.00;118595.56;5051077;28;20440;-73
2021/12/28 04:50:14;;;;;;;33.05;18.02;;;;;;;-142.18;100.00;118595.56;5081549;27;20480;-73
2021/12/28 04:52:42;;;;;;;34.75;18.42;;;;;;;-142.18;100.00;118595.56;5156386;27;20059;-74
2021/12/28 04:55:15;;;;;;;36.35;17.85;;;;;;;-142.18;100.00;118595.56;5156340;27;20116;-74
2021/12/28 04:57:42;;;;;;;32.40;16.63;;;;;;;-142.18;100.00;118595.56;5155853;27;20371;-74
2021/12/28 05:00:17;;;;;;;27.85;15.85;;;;;;;-142.18;100.00;118595.56;5137638;27;20108;-74
2021/12/28 05:02:44;;;;;;;30.13;16.50;;;;;;;-142.18;100.00;118595.56;5154609;27;20063;-73
2021/12/28 05:05:11;;;;;;;31.50;17.88;;;;;;;-142.18;100.00;118595.56;5131547;27;20092;-73
2021/12/28 05:07:39;;;;;;;37.13;18.85;;;;;;;-142.18;100.00;118595.56;5154685;27;20051;-73
2021/12/28 05:10:07;;;;;;;27.02;16.10;;;;;;;-142.18;100.00;118595.56;5136718;27;20067;-73
2021/12/28 05:12:34;;;;;;;34.50;18.20;;;;;;;-142.18;100.00;118595.56;5154332;27;20066;-73
2021/12/28 05:15:00;;;;;;;28.95;18.05;;;;;;;-142.18;100.00;118595.56;5154354;27;20047;-73
2021/12/28 05:17:27;;;;;;;27.20;15.98;;;;;;;-142.18;100.00;118595.56;5135465;27;20089;-74
2021/12/28 05:19:54;;;;;;;29.80;16.65;;;;;;;-142.18;100.00;118595.56;5136745;27;20066;-74
2021/12/28 05:22:21;;;;;;;28.10;16.35;;;;;;;-142.18;100.00;118595.56;5136268;27;20112;-74
2021/12/28 05:24:48;;;;;;;35.85;18.75;;;;;;;-142.18;100.00;118595.56;5153665;27;20055;-74
2021/12/28 05:27:15;;;;;;;28.38;16.85;;;;;;;-142.18;100.00;118595.56;5155030;27;20092;-74
2021/12/28 05:29:41;;;;;;;29.15;17.05;;;;;;;-142.18;100.00;118595.56;5155029;27;20752;-74
2021/12/28 05:32:08;;;;;;;31.00;16.80;;;;;;;-142.18;100.00;118595.56;5154595;27;20059;-74
2021/12/28 05:34:35;;;;;;;29.88;16.50;;;;;;;-142.18;100.00;118595.56;5155289;27;20120;-74
2021/12/28 05:37:01;;;;;;;27.00;15.95;;;;;;;-142.18;100.00;118595.56;5155232;27;20417;-74
2021/12/28 05:39:28;;;;;;;29.85;17.52;;;;;;;-142.18;100.00;118595.56;5155127;27;20590;-74
2021/12/28 05:41:55;;;;;;;31.67;18.17;;;;;;;-142.18;100.00;118595.56;5136963;27;20066;-74
2021/12/28 05:44:23;;;;;;;33.03;17.92;;;;;;;-142.18;100.00;118595.56;5155585;27;20115;-74
2021/12/28 05:46:51;;;;;;;33.75;18.55;;;;;;;-142.18;100.00;118595.56;5136403;27;20085;-74
2021/12/28 05:49:18;;;;;;;33.38;18.30;;;;;;;-142.18;100.00;118595.56;5088855;27;20064;-73
2021/12/28 05:51:45;;;;;;;38.88;21.02;;;;;;;-142.18;100.00;118595.56;5038496;28;20754;-73
2021/12/28 05:54:12;;;;;;;56.53;26.23;;;;;;;-142.18;100.00;118595.56;5044387;28;20072;-74
2021/12/28 05:56:39;;;;;;;40.08;20.42;;;;;;;-142.18;100.00;118595.56;5030053;28;20057;-75
2021/12/28 05:59:05;;;;;;;47.83;24.45;;;;;;;-142.18;100.00;118595.56;5029886;27;20115;-73
2021/12/28 06:01:32;;;;;;;61.53;28.30;;;;;;;-142.18;100.00;118595.56;5012666;28;20066;-74
2021/12/28 06:03:59;;;;;;;58.08;28.30;;;;;;;-142.18;100.00;118595.56;5030197;28;20061;-74
2021/12/28 06:06:31;;;;;;;52.67;27.15;;;;;;;-142.18;100.00;118595.56;5045727;28;20069;-74
2021/12/28 06:08:57;;;;;;;48.60;24.88;;;;;;;-142.18;100.00;118595.56;5011546;28;20115;-74
2021/12/28 06:11:49;;;;;;;79.50;36.15;;;;;;;-142.18;100.00;118595.56;5030398;28;20066;-74
2021/12/28 06:14:16;;;;;;;68.88;33.92;;;;;;;-142.18;100.00;118595.56;5029212;28;20422;-74
2021/12/28 06:16:46;;;;;;;59.97;29.23;;;;;;;-142.18;100.00;118595.56;5049688;27;20061;-74
2021/12/28 06:19:13;;;;;;;66.20;33.25;;;;;;;-142.18;100.00;118595.56;5083906;28;20057;-74
2021/12/28 06:21:48;;;;;;;52.25;26.92;;;;;;;-142.18;100.00;118595.56;5052206;28;20171;-74
2021/12/28 06:24:42;;;;;;;50.67;25.15;;;;;;;-142.18;100.00;118595.56;5067918;27;20712;-74
2021/12/28 06:27:27;;;;;;;33.95;19.30;;;;;;;-142.18;100.00;118595.56;5068273;28;20372;-74
2021/12/28 06:29:55;;;;;;;35.92;20.48;;;;;;;-142.18;100.00;118595.56;5073452;28;20061;-75
2021/12/28 06:32:22;;;;;;;38.20;21.85;;;;;;;-142.18;100.00;118595.56;5082514;28;20057;-75
2021/12/28 06:34:49;;;;;;;40.85;21.85;;;;;;;-142.18;100.00;118595.56;5076015;28;20075;-74
2021/12/28 06:37:16;;;;;;;35.40;19.75;;;;;;;-142.18;100.00;118595.56;5093534;28;20056;-74
2021/12/28 06:40:04;;;;;;;38.88;19.88;;;;;;;-142.18;100.00;118595.56;5094089;28;20143;-74
2021/12/28 06:42:33;;;;;;;32.20;18.92;;;;;;;-142.18;100.00;118595.56;5077790;28;20183;-74
2021/12/28 06:45:01;;;;;;;52.08;26.60;;;;;;;-142.18;100.00;118595.56;5094671;28;20052;-74
2021/12/28 06:47:28;;;;;;;42.80;23.45;;;;;;;-142.18;100.00;118595.56;5094516;28;20063;-74
2021/12/28 06:49:56;;;;;;;43.80;22.27;;;;;;;-142.18;100.00;118595.56;5094053;28;20068;-74
2021/12/28 06:52:25;;;;;;;44.47;23.20;;;;;;;-142.18;100.00;118595.56;5094491;28;20135;-74
2021/12/28 06:54:53;;;;;;;44.63;24.48;;;;;;;-142.18;100.00;118595.56;5091134;28;20087;-74
2021/12/28 06:57:22;;;;;;;56.75;26.90;;;;;;;-142.18;100.00;118595.56;5071955;28;20195;-74
2021/12/28 06:59:48;;;;;;;46.80;25.13;;;;;;;-142.18;100.00;118595.56;5068863;28;20736;-73
2021/12/28 07:02:30;;;;;;;41.13;22.40;;;;;;;-142.18;100.00;118595.56;5070829;28;20450;-75
2021/12/28 07:05:32;;;;;;;50.20;25.05;;;;;;;-142.18;100.00;118595.56;5128385;27;20160;-73
2021/12/28 07:08:16;;;;;;;49.88;24.48;;;;;;;-142.18;100.00;118595.56;5116550;27;20125;-74
2021/12/28 07:10:43;;;;;;;42.88;23.73;;;;;;;-142.18;100.00;118595.56;5072312;28;20064;-74
2021/12/28 07:13:11;;;;;;;46.08;24.20;;;;;;;-142.18;100.00;118595.56;5072159;28;20053;-74
2021/12/28 07:15:38;;;;;;;49.88;25.00;;;;;;;-142.18;100.00;118595.56;5072385;28;20059;-74
2021/12/28 07:18:05;;;;;;;45.88;25.23;;;;;;;-142.18;100.00;118595.56;5052724;27;20072;-74
2021/12/28 07:20:32;;;;;;;47.22;25.10;;;;;;;-142.18;100.00;118595.56;5120775;27;20122;-74
2021/12/28 07:22:58;;;;;;;50.22;24.08;;;;;;;-142.18;100.00;118595.56;5052940;28;20130;-74
2021/12/28 07:25:25;;;;;;;46.60;24.55;;;;;;;-142.18;100.00;118595.56;5113093;27;20054;-74
2021/12/28 07:27:55;;;;;;;65.20;32.08;;;;;;;-142.18;100.00;118595.56;5103017;28;20066;-74
2021/12/28 07:30:22;;;;;;;57.00;31.40;;;;;;;-142.18;100.00;118595.56;5033476;28;20115;-75
2021/12/28 07:32:50;;;;;;;48.67;28.95;;;;;;;-142.18;100.00;118595.56;5033178;28;20061;-74
2021/12/28 07:35:18;;;;;;;50.50;26.30;;;;;;;-142.18;100.00;118595.56;5032095;28;20463;-74
2021/12/28 07:37:46;;;;;;;48.55;23.73;;;;;;;-142.18;100.00;118595.56;5047437;28;20049;-74
2021/12/28 07:40:16;;;;;;;44.67;24.42;;;;;;;-142.18;100.00;118595.56;5049338;28;20061;-75
2021/12/28 07:42:53;;;;;;;49.83;25.17;;;;;;;-142.18;100.00;118595.56;5052048;28;20459;-74
2021/12/28 07:45:30;;;;;;;41.97;23.35;;;;;;;-142.18;100.00;118595.56;5068227;27;20197;-74
2021/12/28 07:47:59;;;;;;;45.55;24.65;;;;;;;-142.18;100.00;118595.56;5119047;27;20665;-74
2021/12/28 07:50:27;;;;;;;47.03;24.65;;;;;;;-142.18;100.00;118595.56;5120472;27;20061;-74
2021/12/28 07:52:55;;;;;;;40.75;21.83;;;;;;;-142.18;100.00;118595.56;5051695;28;20459;-74
2021/12/28 07:55:22;;;;;;;46.47;25.08;;;;;;;-142.18;100.00;118595.56;5053111;28;20076;-74
2021/12/28 07:57:52;;;;;;;47.92;23.95;;;;;;;-142.18;100.00;118595.56;5121514;27;20058;-75
2021/12/28 08:00:23;;;;;;;44.00;23.45;;;;;;;-142.18;100.00;118595.56;5122603;27;20061;-75
2021/12/28 08:02:56;;;;;;;48.72;22.70;;;;;;;-142.18;100.00;118595.56;5054643;28;20057;-74
2021/12/28 08:05:24;;;;;;;40.80;22.40;;;;;;;-142.18;100.00;118595.56;5054746;27;20057;-74
2021/12/28 08:07:52;;;;;;;42.35;23.50;;;;;;;-142.18;100.00;118595.56;5053730;28;20074;-75
2021/12/28 08:10:21;;;;;;;41.10;23.08;;;;;;;-142.18;100.00;118595.56;5122818;27;20655;-74
2021/12/28 08:12:54;;;;;;;45.65;22.40;;;;;;;-142.18;100.00;118595.56;5052740;28;20061;-75
2021/12/28 08:15:25;;;;;;;41.83;21.25;;;;;;;-142.18;100.00;118595.56;5051840;28;20057;-74
2021/12/28 08:17:56;;;;;;;44.40;22.17;;;;;;;-142.18;100.00;118595.56;5048128;28;20060;-75
2021/12/28 08:20:27;;;;;;;47.95;23.08;;;;;;;-142.18;100.00;118595.56;5100731;27;20144;-75
2021/12/28 08:22:56;;;;;;;44.13;22.58;;;;;;;-142.18;100.00;118595.56;5031991;28;20058;-74
2021/12/28 08:25:27;;;;;;;47.15;22.67;;;;;;;-142.18;100.00;118595.56;5111894;27;20115;-74
2021/12/28 08:28:33;;;;;;;51.75;26.02;;;;;;;-142.18;100.00;118595.56;5110858;27;20064;-74
2021/12/28 08:31:36;;;;;;;64.75;30.85;;;;;;;-142.18;100.00;118595.56;5033002;27;20126;-74
2021/12/28 08:34:25;;;;;;;60.72;27.50;;;;;;;-142.18;100.00;118595.56;5096509;28;20046;-75
2021/12/28 08:37:05;;;;;;;40.85;19.00;;;;;;;-142.18;100.00;118595.56;5036517;28;20444;-73
2021/12/28 08:39:54;;;;;;;30.20;14.13;;;;;;;-142.18;100.00;118595.56;5039056;27;20057;-72
2021/12/28 08:42:23;;;;;;;29.48;13.85;;;;;;;-142.18;100.00;118595.56;5038305;28;20732;-72
2021/12/28 08:44:53;;;;;;;26.58;14.02;;;;;;;-142.18;100.00;118595.56;5037665;28;20647;-73
2021/12/28 08:47:26;;;;;;;28.73;14.98;;;;;;;-142.18;100.00;118595.56;5104952;27;20213;-73
2021/12/28 08:49:54;;;;;;;35.08;17.27;;;;;;;-142.18;100.00;118595.56;5036712;28;20161;-73
2021/12/28 08:52:26;;;;;;;35.65;16.60;;;;;;;-142.18;100.00;118595.56;5052054;27;20057;-73
2021/12/28 08:54:54;;;;;;;37.80;19.15;;;;;;;-142.18;100.00;118595.56;5124893;27;20133;-73
2021/12/28 08:57:22;;;;;;;36.50;18.63;;;;;;;-142.18;100.00;118595.56;5051221;28;20061;-73
2021/12/28 08:59:51;;;;;;;32.47;17.00;;;;;;;-142.18;100.00;118595.56;5060793;27;20057;-73
2021/12/28 09:02:19;;;;;;;38.30;18.70;;;;;;;-142.18;100.00;118595.56;5078263;28;20141;-73
2021/12/28 09:04:47;;;;;;;35.97;17.75;;;;;;;-142.18;100.00;118595.56;5077990;28;20099;-74
2021/12/28 09:07:17;;;;;;;33.50;16.52;;;;;;;-142.18;100.00;118595.56;5059506;27;20057;-73
2021/12/28 09:09:52;;;;;;;31.90;14.70;;;;;;;-142.18;100.00;118595.56;5063642;28;20134;-73
2021/12/28 09:12:20;;;;;;;26.10;13.25;;;;;;;-142.18;100.00;118595.56;5056070;28;20065;-73
2021/12/28 09:14:50;;;;;;;25.73;12.70;;;;;;;-142.18;100.00;118595.56;5047295;28;20152;-73
2021/12/28 09:17:19;;;;;;;28.45;12.30;;;;;;;-142.18;100.00;118595.56;5057554;28;20127;-73
2021/12/28 09:19:46;;;;;;;25.33;11.50;;;;;;;-142.18;100.00;118595.56;5038017;28;20117;-72
2021/12/28 09:22:22;;;;;;;24.08;11.55;;;;;;;-142.18;100.00;118595.56;5054764;28;20163;-74
2021/12/28 09:24:49;;;;;;;21.98;12.43;;;;;;;-142.18;100.00;118595.56;5057580;27;20050;-73
2021/12/28 09:27:20;;;;;;;25.50;12.55;;;;;;;-142.18;100.00;118595.56;5056046;28;20061;-72
2021/12/28 09:29:48;;;;;;;25.05;13.05;;;;;;;-142.18;100.00;118595.56;5119621;27;20111;-73
2021/12/28 09:32:18;;;;;;;23.60;12.27;;;;;;;-142.18;100.00;118595.56;5055416;28;20065;-73
2021/12/28 09:34:49;;;;;;;29.10;13.18;;;;;;;-142.18;100.00;118595.56;5123423;27;20049;-73
2021/12/28 09:37:19;;;;;;;24.08;13.30;;;;;;;-142.18;100.00;118595.56;5054794;28;20054;-73
2021/12/28 09:39:49;;;;;;;24.60;11.70;;;;;;;-142.18;100.00;118595.56;5131510;27;20853;-73
2021/12/28 09:42:18;;;;;;;25.45;12.68;;;;;;;-142.18;100.00;118595.56;5103536;28;20056;-73
2021/12/28 09:44:49;;;;;;;33.08;16.27;;;;;;;-142.18;100.00;118595.56;5104677;28;20108;-73
2021/12/28 09:47:25;;;;;;;30.00;17.15;;;;;;;-142.18;100.00;118595.56;5121305;27;20054;-74
2021/12/28 09:49:55;;;;;;;34.53;18.05;;;;;;;-142.18;100.00;118595.56;5123474;27;20061;-73
2021/12/28 09:52:27;;;;;;;30.00;14.30;;;;;;;-142.18;100.00;118595.56;5104804;27;20057;-74
2021/12/28 09:55:00;;;;;;;34.85;14.60;;;;;;;-142.18;100.00;118595.56;5060172;27;20058;-73
2021/12/28 09:57:28;;;;;;;32.97;14.95;;;;;;;-142.18;100.00;118595.56;5126999;27;20061;-73
2021/12/28 09:59:55;;;;;;;23.83;11.68;;;;;;;-142.18;100.00;118595.56;5104124;27;20568;-73
2021/12/28 10:02:22;;;;;;;21.17;9.88;;;;;;;-142.18;100.00;118595.56;5122507;27;20126;-73
2021/12/28 10:05:06;;;;;;;24.50;10.85;;;;;;;-142.18;100.00;118595.56;5122571;27;20057;-74
2021/12/28 10:07:36;;;;;;;25.77;11.23;;;;;;;-142.18;100.00;118595.56;5055186;28;20071;-73
2021/12/28 10:10:06;;;;;;;25.10;9.82;;;;;;;-142.18;100.00;118595.56;5121571;27;20057;-72
2021/12/28 10:12:41;;;;;;;18.10;9.07;;;;;;;-142.18;100.00;118595.56;5120620;27;20110;-72
2021/12/28 10:15:21;;;;;;;17.75;9.75;;;;;;;-142.18;100.00;118595.56;5116977;27;20046;-71
2021/12/28 10:17:52;;;;;;;18.65;9.30;;;;;;;-142.18;100.00;118595.56;5049239;28;20110;-72
2021/12/28 10:20:22;;;;;;;18.70;8.35;;;;;;;-142.18;100.00;118595.56;5123124;27;20466;-73
2021/12/28 10:23:04;;;;;;;22.38;10.45;;;;;;;-142.18;100.00;118595.56;5123233;27;20061;-72
2021/12/28 10:25:47;;;;;;;21.50;9.18;;;;;;;-142.18;100.00;118595.56;5055776;28;20053;-72
2021/12/28 10:28:18;;;;;;;21.98;9.35;;;;;;;-142.18;100.00;118595.56;5053297;28;20057;-72
2021/12/28 10:30:57;;;;;;;27.77;10.25;;;;;;;-142.18;100.00;118595.56;5122280;27;20057;-72
2021/12/28 10:33:28;;;;;;;17.85;8.52;;;;;;;-142.18;100.00;118595.56;5054676;28;20069;-72
2021/12/28 10:35:57;;;;;;;21.20;9.55;;;;;;;-142.18;100.00;118595.56;5055686;28;20119;-73
2021/12/28 10:38:27;;;;;;;16.35;7.65;;;;;;;-142.18;100.00;118595.56;5054575;28;20069;-73
2021/12/28 10:41:01;;;;;;;20.45;9.30;;;;;;;-142.18;100.00;118595.56;5136582;27;20047;-73
2021/12/28 10:43:33;;;;;;;19.88;9.77;;;;;;;-142.18;100.00;118595.56;5157359;27;20098;-73
2021/12/28 10:46:10;;;;;;;11.55;5.57;;;;;;;-142.18;100.00;118595.56;5140911;27;20126;-73
2021/12/28 10:48:47;;;;;;;13.43;5.63;;;;;;;-142.18;100.00;118595.56;5141269;27;20059;-72
2021/12/28 10:51:22;;;;;;;15.60;6.53;;;;;;;-142.18;100.00;118595.56;5139779;27;20452;-72
2021/12/28 10:54:12;;;;;;;9.10;5.28;;;;;;;-142.18;100.00;118595.56;5159123;27;20055;-73
2021/12/28 10:56:47;;;;;;;12.63;6.15;;;;;;;-142.18;100.00;118595.56;5137131;27;20384;-72
2021/12/28 10:59:21;;;;;;;9.57;5.00;;;;;;;-142.18;100.00;118595.56;5138463;27;20067;-73
2021/12/28 11:01:49;;;;;;;10.73;5.10;;;;;;;-142.18;100.00;118595.56;5118200;27;20117;-72
2021/12/28 11:04:18;;;;;;;9.45;4.93;;;;;;;-142.18;100.00;118595.56;5138834;27;20085;-73